Time;durP1;ratioP1;P1;durP2;ratioP2;P2;SDS_P1;SDS_P2;PMS_P1;PMS_P2;Temp;Humidity;BMP_temperature;BMP_pressure;BME280_temperature;BME280_humidity;BME280_pressure;Samples;Min_cycle;Max_cycle;Signal;HPM_P1;HPM_P2
2023/06/01 00:00:49;;;;;;;16.98;9.65;;;;;;;12.42;100.00;102543.63;5024023;28;20029;-60
2023/06/01 00:03:14;;;;;;;15.65;9.20;;;;;;;12.40;100.00;102545.44;5023321;28;20044;-60
2023/06/01 00:05:40;;;;;;;15.60;8.75;;;;;;;12.53;100.00;102549.66;5021720;28;20030;-60
2023/06/01 00:08:05;;;;;;;18.35;8.60;;;;;;;12.58;100.00;102555.75;5024187;28;20034;-61
2023/06/01 00:10:31;;;;;;;15.27;8.10;;;;;;;12.54;100.00;102554.03;5023582;28;20415;-59
2023/06/01 00:12:56;;;;;;;16.02;7.13;;;;;;;12.36;100.00;102552.53;5020326;28;20014;-58
2023/06/01 00:15:22;;;;;;;11.68;7.72;;;;;;;12.41;100.00;102560.41;5023943;28;20060;-60
2023/06/01 00:17:51;;;;;;;15.05;7.13;;;;;;;12.45;100.00;102549.75;5021808;28;20014;-59
2023/06/01 00:20:17;;;;;;;;;;;;;;;12.43;100.00;102555.97;5019491;28;20128;-59
2023/06/01 00:22:42;;;;;;;12.52;6.90;;;;;;;12.43;100.00;102548.03;5023598;28;20019;-63
2023/06/01 00:25:08;;;;;;;14.25;7.00;;;;;;;12.50;100.00;102549.69;5003562;28;20096;-60
2023/06/01 00:27:33;;;;;;;14.93;7.68;;;;;;;12.59;100.00;102546.94;5022737;28;20653;-59
2023/06/01 00:29:59;;;;;;;12.82;7.28;;;;;;;12.48;100.00;102548.84;5022530;28;20013;-60
2023/06/01 00:32:24;;;;;;;13.95;7.50;;;;;;;12.29;100.00;102543.81;5021183;28;20022;-61
2023/06/01 00:34:49;;;;;;;20.50;7.88;;;;;;;12.27;100.00;102542.97;5023240;28;20034;-61
2023/06/01 00:37:15;;;;;;;13.73;7.03;;;;;;;12.30;100.00;102548.22;5023013;28;20021;-60
2023/06/01 00:39:40;;;;;;;18.00;7.28;;;;;;;12.33;100.00;102544.63;5021234;28;20017;-61
2023/06/01 00:42:06;;;;;;;13.10;7.50;;;;;;;12.24;100.00;102537.72;5022648;28;20083;-61
2023/06/01 00:44:31;;;;;;;14.18;7.03;;;;;;;12.21;100.00;102540.41;5023560;28;20036;-61
2023/06/01 00:46:59;;;;;;;16.20;7.38;;;;;;;12.42;100.00;102535.69;5019742;28;20021;-59
2023/06/01 00:49:24;;;;;;;11.77;6.43;;;;;;;12.32;100.00;102533.22;5024059;28;20033;-58
2023/06/01 00:51:50;;;;;;;17.73;7.45;;;;;;;12.33;100.00;102540.25;5022474;28;20056;-61
2023/06/01 00:54:15;;;;;;;16.27;7.68;;;;;;;12.30;100.00;102535.00;5020682;28;20032;-59
2023/06/01 00:56:40;;;;;;;12.93;6.97;;;;;;;12.36;100.00;102529.63;5023697;28;20037;-61
2023/06/01 00:59:06;;;;;;;15.02;7.75;;;;;;;12.28;100.00;102546.50;5022701;28;20108;-56
2023/06/01 01:01:31;;;;;;;15.25;7.70;;;;;;;12.28;100.00;102543.84;5020113;28;20664;-59
2023/06/01 01:04:00;;;;;;;18.52;7.18;;;;;;;12.16;100.00;102535.16;5023045;28;20493;-61
2023/06/01 01:06:41;;;;;;;19.40;7.50;;;;;;;12.04;100.00;102540.59;5022910;28;20476;-60
2023/06/01 01:09:22;;;;;;;18.73;7.75;;;;;;;12.29;100.00;102542.94;5060323;23;20432;-58
2023/06/01 01:12:00;;;;;;;13.73;7.68;;;;;;;12.27;100.00;102537.69;4983525;28;20488;-61
2023/06/01 01:14:55;;;;;;;13.80;7.65;;;;;;;12.26;100.00;102541.22;4982120;28;20053;-59
2023/06/01 01:17:32;;;;;;;13.27;7.63;;;;;;;12.24;100.00;102545.66;4964319;28;20031;-59
2023/06/01 01:20:12;;;;;;;18.00;7.93;;;;;;;12.25;100.00;102535.06;4962698;28;20023;-59
2023/06/01 01:22:38;;;;;;;16.65;8.63;;;;;;;12.21;100.00;102536.00;4971417;28;20022;-58
2023/06/01 01:25:32;;;;;;;13.05;7.53;;;;;;;12.41;100.00;102533.97;4981511;28;20081;-61
2023/06/01 01:28:34;;;;;;;18.67;7.63;;;;;;;12.30;100.00;102531.47;4978553;28;20543;-61
2023/06/01 01:31:01;;;;;;;14.70;7.05;;;;;;;12.33;100.00;102527.03;4984687;28;20027;-59
2023/06/01 01:33:27;;;;;;;10.25;7.75;;;;;;;12.44;100.00;102532.16;4982671;28;20408;-61
2023/06/01 01:35:53;;;;;;;12.32;7.72;;;;;;;12.19;100.00;102532.50;4983865;28;20041;-57
2023/06/01 01:38:18;;;;;;;13.25;7.38;;;;;;;12.28;100.00;102531.47;4986220;28;20023;-60
2023/06/01 01:40:44;;;;;;;16.38;7.82;;;;;;;12.30;100.00;102540.28;4984024;28;20034;-59
2023/06/01 01:43:10;;;;;;;13.15;7.03;;;;;;;12.40;100.00;102538.38;4988359;28;20026;-60
2023/06/01 01:45:35;;;;;;;15.60;7.95;;;;;;;12.38;100.00;102534.88;4987599;28;20026;-59
2023/06/01 01:48:06;;;;;;;11.70;6.80;;;;;;;12.28;100.00;102544.69;4983574;28;20038;-60
2023/06/01 01:50:36;;;;;;;18.90;7.47;;;;;;;12.20;100.00;102536.00;4949731;29;20027;-57
2023/06/01 01:53:02;;;;;;;17.48;7.55;;;;;;;12.28;100.00;102538.56;4947786;28;20115;-58
2023/06/01 01:55:28;;;;;;;16.23;7.32;;;;;;;12.15;100.00;102544.00;4964915;28;20031;-59
2023/06/01 01:57:55;;;;;;;17.58;7.80;;;;;;;12.17;100.00;102541.34;4985547;28;20018;-60
2023/06/01 02:00:21;;;;;;;17.58;7.35;;;;;;;12.18;100.00;102537.78;4985365;28;20560;-60
2023/06/01 02:02:47;;;;;;;20.40;6.60;;;;;;;12.11;100.00;102540.53;4982756;28;20101;-59
2023/06/01 02:05:12;;;;;;;18.50;7.50;;;;;;;12.09;100.00;102529.09;4987886;28;20023;-62
2023/06/01 02:07:37;;;;;;;16.85;7.97;;;;;;;12.10;100.00;102535.28;4983215;28;20062;-59
2023/06/01 02:10:04;;;;;;;19.80;7.40;;;;;;;12.21;100.00;102535.13;4985921;28;20389;-58
2023/06/01 02:12:29;;;;;;;19.00;6.95;;;;;;;12.19;100.00;102529.00;4986157;28;20030;-58
2023/06/01 02:14:55;;;;;;;11.93;7.07;;;;;;;11.92;100.00;102524.00;4984138;28;20101;-58
2023/06/01 02:17:21;;;;;;;16.27;7.32;;;;;;;12.03;100.00;102525.63;4987129;28;20023;-60
2023/06/01 02:19:47;;;;;;;18.70;7.18;;;;;;;12.07;100.00;102522.09;4983749;28;20030;-59
2023/06/01 02:22:12;;;;;;;15.77;7.75;;;;;;;12.07;100.00;102520.31;4979613;28;20031;-62
2023/06/01 02:24:39;;;;;;;20.27;7.95;;;;;;;11.97;100.00;102519.53;4987064;28;20496;-60
2023/06/01 02:27:05;;;;;;;12.65;7.55;;;;;;;12.05;100.00;102527.38;4982751;28;20114;-59
2023/06/01 02:29:30;;;;;;;22.67;8.57;;;;;;;12.04;100.00;102517.69;4987404;28;20490;-60
2023/06/01 02:31:55;;;;;;;23.63;7.35;;;;;;;12.23;100.00;102517.47;4983303;28;20097;-61
2023/06/01 02:34:21;;;;;;;17.70;7.90;;;;;;;12.23;100.00;102518.38;4987326;28;20310;-59
2023/06/01 02:36:48;;;;;;;15.45;7.65;;;;;;;12.24;100.00;102514.81;4985813;28;20026;-60
2023/06/01 02:39:13;;;;;;;18.00;7.85;;;;;;;12.04;100.00;102520.31;4983227;28;20208;-59
2023/06/01 02:41:38;;;;;;;19.52;7.88;;;;;;;12.07;100.00;102512.38;4986432;28;20026;-60
2023/06/01 02:44:04;;;;;;;11.50;7.05;;;;;;;12.05;100.00;102513.28;4983218;28;20033;-58
2023/06/01 02:46:29;;;;;;;15.60;8.00;;;;;;;12.10;100.00;102517.63;4986790;28;20109;-58
2023/06/01 02:48:55;;;;;;;15.73;7.20;;;;;;;12.24;100.00;102519.22;4985539;28;20412;-60
2023/06/01 02:51:20;;;;;;;15.13;7.55;;;;;;;12.06;100.00;102521.19;4984074;28;20388;-56
2023/06/01 02:53:48;;;;;;;18.73;8.00;;;;;;;11.98;100.00;102520.44;4986657;28;20031;-60
2023/06/01 02:56:14;;;;;;;15.27;7.37;;;;;;;11.99;100.00;102515.13;4986326;28;20031;-59
2023/06/01 02:58:41;;;;;;;17.50;7.40;;;;;;;12.04;100.00;102501.81;4983950;28;20519;-60
2023/06/01 03:01:07;;;;;;;20.00;7.57;;;;;;;11.95;100.00;102512.53;4986646;28;20527;-59
2023/06/01 03:03:33;;;;;;;15.35;7.63;;;;;;;11.87;100.00;102505.56;4984401;28;20029;-60
2023/06/01 03:05:58;;;;;;;13.52;7.57;;;;;;;12.15;100.00;102506.13;4985022;28;20030;-59
2023/06/01 03:08:26;;;;;;;19.95;7.57;;;;;;;12.03;100.00;102508.00;4985866;28;20479;-61
2023/06/01 03:10:52;;;;;;;16.75;7.72;;;;;;;12.09;100.00;102509.72;4983256;28;20023;-60
2023/06/01 03:13:17;;;;;;;20.52;7.45;;;;;;;12.09;100.00;102512.38;4985767;28;20385;-61
2023/06/01 03:15:43;;;;;;;11.60;7.10;;;;;;;12.13;100.00;102519.34;4985345;28;20238;-62
2023/06/01 03:18:11;;;;;;;16.73;7.50;;;;;;;12.02;100.00;102508.91;4983533;28;20029;-59
2023/06/01 03:20:36;;;;;;;15.30;7.90;;;;;;;12.09;100.00;102510.63;4986477;28;20693;-59
2023/06/01 03:23:02;;;;;;;20.55;7.55;;;;;;;12.21;100.00;102509.56;4985110;28;20278;-60
2023/06/01 03:25:28;;;;;;;22.05;7.53;;;;;;;12.09;100.00;102515.91;4982293;28;20512;-60
2023/06/01 03:27:53;;;;;;;20.00;8.55;;;;;;;12.06;100.00;102515.91;4986201;28;20493;-59
2023/06/01 03:30:18;;;;;;;18.90;7.68;;;;;;;11.94;100.00;102516.94;4984852;28;20026;-60
2023/06/01 03:32:44;;;;;;;17.92;7.40;;;;;;;12.07;100.00;102517.66;4982581;28;20433;-61
2023/06/01 03:35:11;;;;;;;15.32;7.03;;;;;;;12.06;100.00;102520.31;4988358;28;20019;-61
2023/06/01 03:37:37;;;;;;;13.57;6.85;;;;;;;12.01;100.00;102512.44;4987015;28;20018;-59
2023/06/01 03:40:10;;;;;;;14.13;6.90;;;;;;;11.91;100.00;102519.63;4983036;28;20041;-61
2023/06/01 03:42:37;;;;;;;13.93;6.55;;;;;;;12.10;100.00;102520.28;4986210;28;20018;-61
2023/06/01 03:45:04;;;;;;;14.18;7.50;;;;;;;12.15;100.00;102519.34;4985088;28;20145;-61
2023/06/01 03:47:30;;;;;;;18.33;7.00;;;;;;;11.97;100.00;102526.59;4982990;28;20392;-62
2023/06/01 03:49:55;;;;;;;19.95;7.03;;;;;;;12.03;100.00;102522.97;4986025;28;20030;-59
2023/06/01 03:52:20;;;;;;;16.13;6.40;;;;;;;12.20;100.00;102522.81;4984917;28;20488;-61
2023/06/01 03:54:46;;;;;;;15.80;6.20;;;;;;;12.04;100.00;102520.31;4982388;28;20030;-58
2023/06/01 03:57:11;;;;;;;18.95;6.28;;;;;;;12.06;100.00;102521.19;4980654;28;20122;-63
2023/06/01 03:59:36;;;;;;;14.88;6.47;;;;;;;12.16;100.00;102510.53;4985045;28;20218;-59
2023/06/01 04:02:04;;;;;;;25.90;6.88;;;;;;;12.00;100.00;102521.25;4981599;28;20038;-59
2023/06/01 04:04:30;;;;;;;15.98;6.20;;;;;;;12.00;100.00;102522.16;4979853;28;20097;-59
2023/06/01 04:07:00;;;;;;;18.95;6.70;;;;;;;12.12;100.00;102515.84;4965679;28;20343;-58
2023/06/01 04:09:26;;;;;;;14.30;6.68;;;;;;;12.10;100.00;102524.72;4965294;28;20031;-58
2023/06/01 04:11:51;;;;;;;15.40;7.10;;;;;;;12.02;100.00;102519.47;4974708;28;20030;-60
2023/06/01 04:14:17;;;;;;;18.15;6.50;;;;;;;12.13;100.00;102519.34;4985438;28;20327;-60
2023/06/01 04:16:42;;;;;;;11.93;6.10;;;;;;;12.11;100.00;102529.09;4984370;28;20081;-62
2023/06/01 04:19:07;;;;;;;13.68;6.25;;;;;;;12.04;100.00;102517.69;4980195;28;20026;-59
2023/06/01 04:21:32;;;;;;;17.73;7.22;;;;;;;12.00;100.00;102521.25;4985663;28;20027;-59
2023/06/01 04:23:58;;;;;;;14.60;7.25;;;;;;;11.83;100.00;102524.13;4984000;28;20030;-60
2023/06/01 04:26:25;;;;;;;15.68;6.95;;;;;;;11.84;100.00;102521.47;4981916;28;20023;-59
2023/06/01 04:28:50;;;;;;;18.98;7.40;;;;;;;11.83;100.00;102519.69;4984852;28;20102;-61
2023/06/01 04:31:19;;;;;;;15.68;7.53;;;;;;;11.91;100.00;102516.09;4984690;28;20114;-60
2023/06/01 04:33:44;;;;;;;17.30;7.45;;;;;;;11.93;100.00;102516.94;4981689;28;20040;-58
2023/06/01 04:36:13;;;;;;;12.80;7.18;;;;;;;11.88;100.00;102517.00;4985222;28;20327;-59
2023/06/01 04:38:41;;;;;;;20.33;8.05;;;;;;;11.95;100.00;102523.09;4982506;28;20281;-59
2023/06/01 04:41:09;;;;;;;20.95;8.23;;;;;;;12.01;100.00;102523.00;4982790;28;20038;-60
2023/06/01 04:43:36;;;;;;;16.10;7.78;;;;;;;12.00;100.00;102521.25;4984266;28;20042;-58
2023/06/01 04:46:04;;;;;;;21.45;9.23;;;;;;;11.94;100.00;102516.94;4981614;28;20030;-58
2023/06/01 04:48:31;;;;;;;19.67;8.68;;;;;;;12.04;100.00;102517.69;4977728;28;20046;-59
2023/06/01 04:51:00;;;;;;;27.00;8.68;;;;;;;12.15;100.00;102529.91;4982956;28;20204;-59
2023/06/01 04:53:26;;;;;;;15.55;7.32;;;;;;;12.08;100.00;102526.47;4981142;28;20042;-59
2023/06/01 04:55:51;;;;;;;16.08;8.30;;;;;;;12.08;100.00;102526.47;4983385;28;20110;-61
2023/06/01 04:58:17;;;;;;;17.60;8.27;;;;;;;12.16;100.00;102534.31;4983601;28;20010;-60
2023/06/01 05:00:42;;;;;;;12.30;7.30;;;;;;;12.22;100.00;102527.16;4980022;28;20023;-63
2023/06/01 05:03:08;;;;;;;15.68;8.52;;;;;;;12.39;100.00;102523.41;4984979;28;20022;-61
2023/06/01 05:05:33;;;;;;;18.00;7.90;;;;;;;12.43;100.00;102529.53;4983213;28;20282;-60
2023/06/01 05:07:58;;;;;;;17.88;7.68;;;;;;;12.61;100.00;102529.25;4981266;28;20022;-59
2023/06/01 05:10:24;;;;;;;18.38;7.50;;;;;;;12.41;100.00;102526.03;4987518;28;20121;-60
2023/06/01 05:12:49;;;;;;;14.45;7.53;;;;;;;12.37;100.00;102531.38;4987545;28;20022;-58
2023/06/01 05:15:16;;;;;;;22.00;7.93;;;;;;;12.32;100.00;102530.56;4985125;28;20445;-59
2023/06/01 05:17:42;;;;;;;17.63;7.68;;;;;;;12.54;100.00;102532.00;4988314;28;20113;-59
2023/06/01 05:20:08;;;;;;;15.77;6.50;;;;;;;12.54;100.00;102537.28;4985204;28;20448;-59
2023/06/01 05:22:35;;;;;;;13.48;6.70;;;;;;;12.42;100.00;102519.84;4988184;28;20366;-60
2023/06/01 05:25:01;;;;;;;15.52;7.32;;;;;;;12.53;100.00;102531.16;4986345;28;20022;-60
2023/06/01 05:27:26;;;;;;;13.35;6.82;;;;;;;12.48;100.00;102531.22;4971680;28;20030;-61
2023/06/01 05:29:52;;;;;;;11.88;6.95;;;;;;;12.58;100.00;102534.59;4968810;28;20023;-60
2023/06/01 05:32:17;;;;;;;14.80;7.38;;;;;;;12.46;100.00;102530.34;4973351;28;20042;-59
2023/06/01 05:34:42;;;;;;;13.95;7.03;;;;;;;12.34;100.00;102535.84;4988440;28;20030;-62
2023/06/01 05:37:08;;;;;;;19.92;6.88;;;;;;;12.23;100.00;102538.63;4987115;28;20420;-63
2023/06/01 05:39:33;;;;;;;16.45;7.43;;;;;;;12.37;100.00;102531.38;4984844;28;20034;-58
2023/06/01 05:41:59;;;;;;;12.38;6.93;;;;;;;12.61;100.00;102531.00;4987033;28;20046;-60
2023/06/01 05:44:24;;;;;;;16.23;6.93;;;;;;;12.59;100.00;102536.34;4983728;28;20398;-60
2023/06/01 05:46:52;;;;;;;16.23;6.90;;;;;;;12.50;100.00;102531.19;4988045;28;20030;-60
2023/06/01 05:49:18;;;;;;;12.70;7.25;;;;;;;12.53;100.00;102525.88;4986608;28;20038;-59
2023/06/01 05:51:43;;;;;;;11.63;7.60;;;;;;;12.61;100.00;102534.53;4984323;28;20408;-59
2023/06/01 05:54:09;;;;;;;19.67;7.43;;;;;;;12.73;100.00;102537.88;4987892;28;20035;-59
2023/06/01 05:56:37;;;;;;;17.67;7.60;;;;;;;12.76;100.00;102532.53;4983904;28;20161;-60
2023/06/01 05:59:02;;;;;;;15.75;7.50;;;;;;;12.72;100.00;102530.84;4986695;28;20587;-58
2023/06/01 06:01:27;;;;;;;20.67;7.53;;;;;;;12.45;100.00;102535.66;4986972;28;20022;-59
2023/06/01 06:03:53;;;;;;;14.40;7.68;;;;;;;12.41;100.00;102533.97;4983031;28;20026;-59
2023/06/01 06:06:18;;;;;;;18.35;7.13;;;;;;;12.58;100.00;102539.03;4986706;28;20084;-59
2023/06/01 06:08:44;;;;;;;17.40;8.00;;;;;;;12.70;100.00;102532.66;4982955;28;20125;-59
2023/06/01 06:11:09;;;;;;;28.13;8.18;;;;;;;12.86;100.00;102534.13;4986942;28;20034;-59
2023/06/01 06:13:34;;;;;;;23.73;7.53;;;;;;;13.10;100.00;102529.34;4983612;28;20031;-58
2023/06/01 06:16:00;;;;;;;88.78;16.20;;;;;;;13.04;100.00;102537.41;4985678;28;20034;-60
2023/06/01 06:18:25;;;;;;;36.85;8.65;;;;;;;13.30;100.00;102529.91;4985476;28;20026;-59
2023/06/01 06:20:50;;;;;;;17.42;7.78;;;;;;;13.30;100.00;102530.75;4983201;28;20121;-60
2023/06/01 06:23:16;;;;;;;15.13;7.30;;;;;;;13.13;100.00;102531.06;4986747;28;20065;-59
2023/06/01 06:25:41;;;;;;;17.52;6.40;;;;;;;13.64;100.00;102529.28;4983006;28;20090;-62
2023/06/01 06:28:08;;;;;;;40.22;8.30;;;;;;;13.55;100.00;102524.16;4987488;28;20548;-60
2023/06/01 06:30:33;;;;;;;21.25;7.43;;;;;;;13.62;100.00;102529.31;4986197;28;20105;-61
2023/06/01 06:32:58;;;;;;;47.67;9.65;;;;;;;13.75;100.00;102529.06;4983189;28;20293;-58
2023/06/01 06:35:24;;;;;;;21.77;6.78;;;;;;;13.61;100.00;102532.00;4987115;28;20030;-61
2023/06/01 06:37:49;;;;;;;12.32;6.30;;;;;;;13.68;100.00;102528.31;4982576;28;20022;-60
2023/06/01 06:40:15;;;;;;;14.18;6.07;;;;;;;13.90;100.00;102525.22;4986695;28;20069;-60
2023/06/01 06:42:40;;;;;;;11.00;6.18;;;;;;;14.00;100.00;102528.56;4986374;28;20030;-61
2023/06/01 06:45:06;;;;;;;16.15;6.30;;;;;;;14.12;100.00;102530.94;4983678;28;20084;-60
2023/06/01 06:47:31;;;;;;;8.27;5.10;;;;;;;14.09;100.00;102533.63;4986506;28;20169;-63
2023/06/01 06:49:57;;;;;;;15.68;6.03;;;;;;;14.09;100.00;102538.94;4983049;28;20397;-60
2023/06/01 06:52:22;;;;;;;16.33;6.47;;;;;;;14.26;100.00;102532.41;4986284;28;20057;-60
2023/06/01 06:54:48;;;;;;;16.98;5.78;;;;;;;14.52;100.00;102536.25;4984759;28;20113;-59
2023/06/01 06:57:13;;;;;;;15.65;6.45;;;;;;;14.61;100.00;102535.16;4983627;28;20113;-59
2023/06/01 06:59:38;;;;;;;13.98;5.97;;;;;;;14.31;100.00;102540.25;4986689;28;20448;-59
2023/06/01 07:02:04;;;;;;;15.70;5.75;;;;;;;14.19;100.00;102533.44;4985641;28;20520;-58
2023/06/01 07:04:30;;;;;;;16.38;7.18;;;;;;;14.46;100.00;102533.72;4982766;28;20023;-61
2023/06/01 07:06:55;;;;;;;14.57;6.15;;;;;;;14.61;100.00;102544.00;4986292;28;20022;-59
2023/06/01 07:09:21;;;;;;;11.30;6.13;;;;;;;14.27;100.00;102548.28;4983709;28;20100;-60
2023/06/01 07:11:47;;;;;;;14.57;6.13;;;;;;;14.49;100.00;102542.50;4977821;28;20076;-61
2023/06/01 07:14:13;;;;;;;15.30;5.90;;;;;;;14.77;100.00;102541.84;4986192;28;20080;-60
2023/06/01 07:16:38;;;;;;;15.93;6.18;;;;;;;14.86;100.00;102547.84;4984466;28;20039;-60
2023/06/01 07:19:04;;;;;;;14.90;6.35;;;;;;;14.40;100.00;102543.59;4983243;28;20027;-59
2023/06/01 07:21:29;;;;;;;12.43;6.15;;;;;;;14.87;100.00;102539.00;4976522;28;20018;-60
2023/06/01 07:23:54;;;;;;;17.77;6.07;;;;;;;14.96;100.00;102540.53;4966474;28;20031;-60
2023/06/01 07:26:22;;;;;;;15.50;6.10;;;;;;;14.76;100.00;102540.09;4965533;28;20049;-62
2023/06/01 07:28:52;;;;;;;18.13;6.47;;;;;;;14.71;100.00;102544.63;4978832;28;20385;-60
2023/06/01 07:31:18;;;;;;;13.85;6.00;;;;;;;14.68;100.00;102544.72;4985065;28;20289;-62
2023/06/01 07:33:43;;;;;;;13.40;5.70;;;;;;;14.56;100.00;102548.53;4984658;28;20034;-60
2023/06/01 07:36:09;;;;;;;15.90;6.40;;;;;;;14.95;100.00;102554.69;4982936;28;20045;-60
2023/06/01 07:38:35;;;;;;;14.60;5.40;;;;;;;14.72;100.00;102550.81;4985233;28;20386;-59
2023/06/01 07:41:00;;;;;;;12.68;5.38;;;;;;;14.47;100.00;102554.91;4982358;28;20018;-61
2023/06/01 07:43:26;;;;;;;15.07;5.80;;;;;;;14.66;100.00;102550.03;4984117;28;20556;-59
2023/06/01 07:45:51;;;;;;;13.13;6.07;;;;;;;14.64;100.00;102549.22;4984334;28;20022;-61
2023/06/01 07:48:16;;;;;;;14.52;5.18;;;;;;;15.06;100.00;102552.66;4982371;28;20030;-59
2023/06/01 07:50:42;;;;;;;13.95;5.18;;;;;;;15.28;100.00;102558.28;4985083;28;20464;-60
2023/06/01 07:53:08;;;;;;;12.63;5.85;;;;;;;15.11;100.00;102542.78;4984325;28;20038;-59
2023/06/01 07:55:34;;;;;;;14.55;5.78;;;;;;;15.44;100.00;102547.25;4981223;28;20030;-60
2023/06/01 07:57:59;;;;;;;11.98;5.13;;;;;;;15.61;100.00;102549.44;4984743;28;20624;-59
2023/06/01 08:00:26;;;;;;;14.80;5.00;;;;;;;15.83;100.00;102553.28;4982228;28;20037;-59
2023/06/01 08:02:51;;;;;;;10.07;5.22;;;;;;;15.38;100.00;102542.13;4984062;28;20389;-60
2023/06/01 08:05:17;;;;;;;13.63;5.57;;;;;;;15.63;100.00;102549.41;4985241;28;20026;-62
2023/06/01 08:07:44;;;;;;;9.50;4.78;;;;;;;15.87;100.00;102542.50;4981477;28;20054;-62
2023/06/01 08:10:10;;;;;;;15.13;5.63;;;;;;;15.92;100.00;102539.72;4984014;28;20169;-60
2023/06/01 08:12:36;;;;;;;12.23;5.82;;;;;;;16.00;100.00;102532.44;4984151;28;20121;-62
2023/06/01 08:15:03;;;;;;;14.63;5.20;;;;;;;16.08;100.00;102536.63;4981797;28;20050;-61
2023/06/01 08:17:29;;;;;;;9.57;5.10;;;;;;;16.16;100.00;102545.25;4984789;28;20027;-60
2023/06/01 08:19:56;;;;;;;7.32;5.00;;;;;;;16.20;100.00;102530.06;4984100;28;20378;-59
2023/06/01 08:22:23;;;;;;;63.08;7.15;;;;;;;16.16;100.00;102534.59;4981707;28;20034;-62
2023/06/01 08:24:48;;;;;;;15.95;5.38;;;;;;;15.99;100.00;102533.34;4984049;28;20034;-60
2023/06/01 08:27:19;;;;;;;14.85;5.68;;;;;;;16.49;100.00;102533.59;4983682;28;20034;-61
2023/06/01 08:29:46;;;;;;;11.05;5.43;;;;;;;16.19;100.00;102534.50;4981146;28;20057;-61
2023/06/01 08:32:12;;;;;;;19.55;5.15;;;;;;;16.43;100.00;102529.34;4985597;28;20030;-60
2023/06/01 08:34:37;;;;;;;8.48;4.60;;;;;;;16.34;100.00;102524.34;4984218;28;20065;-60
2023/06/01 08:37:03;;;;;;;9.50;4.97;;;;;;;15.85;100.00;102524.84;4981150;28;20581;-58
2023/06/01 08:39:28;;;;;;;8.23;4.53;;;;;;;16.27;100.00;102526.31;4982770;28;20472;-62
2023/06/01 08:42:03;;;;;;;7.53;4.43;;;;;;;16.43;100.00;102521.38;4983041;28;20026;-60
2023/06/01 08:44:41;;;;;;;8.30;4.80;;;;;;;16.57;100.00;102528.03;4981431;28;20034;-59
2023/06/01 08:47:07;;;;;;;14.10;4.95;;;;;;;16.15;100.00;102541.72;4984599;28;20038;-62
2023/06/01 08:49:35;;;;;;;9.73;4.78;;;;;;;16.39;100.00;102535.69;4983487;28;20022;-60
2023/06/01 08:52:11;;;;;;;12.18;5.65;;;;;;;16.11;100.00;102542.75;4981565;28;20030;-58
2023/06/01 08:54:37;;;;;;;11.30;5.07;;;;;;;15.88;100.00;102527.44;4984631;28;20506;-60
2023/06/01 08:57:04;;;;;;;11.55;5.18;;;;;;;15.59;100.00;102537.13;4984166;28;20030;-60
2023/06/01 08:59:31;;;;;;;15.82;5.38;;;;;;;15.71;100.00;102528.78;4985436;28;20030;-61
2023/06/01 09:01:57;;;;;;;14.73;4.90;;;;;;;16.11;100.00;102521.47;4983329;28;20033;-61
2023/06/01 09:04:22;;;;;;;12.15;5.03;;;;;;;15.88;100.00;102519.47;4980130;28;20022;-60
2023/06/01 09:06:48;;;;;;;10.75;4.60;;;;;;;16.00;100.00;102518.25;4984144;28;20031;-60
2023/06/01 09:09:14;;;;;;;11.52;4.85;;;;;;;16.04;99.65;102512.81;4983803;28;20351;-61
2023/06/01 09:11:39;;;;;;;15.65;5.63;;;;;;;16.15;99.54;102512.47;4980794;28;20029;-62
2023/06/01 09:14:22;;;;;;;14.23;5.82;;;;;;;16.01;100.00;102512.00;4984039;28;20088;-59
2023/06/01 09:16:47;;;;;;;12.60;5.10;;;;;;;15.98;100.00;102510.31;4981708;28;20386;-61
2023/06/01 09:19:13;;;;;;;11.68;5.20;;;;;;;16.22;100.00;102506.97;4977569;28;20084;-61
2023/06/01 09:21:39;;;;;;;13.02;5.03;;;;;;;16.19;100.00;102510.56;4984963;28;20114;-59
2023/06/01 09:24:21;;;;;;;12.43;5.18;;;;;;;16.54;99.58;102500.63;4980676;28;20105;-61
2023/06/01 09:26:50;;;;;;;8.90;5.30;;;;;;;16.70;96.62;102502.75;4982933;28;20535;-60
2023/06/01 09:29:16;;;;;;;;;;;;;;;16.42;98.64;102501.88;4984420;28;20422;-61
2023/06/01 09:31:47;;;;;;;8.70;5.75;;;;;;;16.27;100.00;102495.28;4982171;28;19953;-61
2023/06/01 09:34:18;;;;;;;11.95;6.18;;;;;;;16.52;99.63;102489.16;4984431;28;20307;-62
2023/06/01 09:36:50;;;;;;;8.77;5.35;;;;;;;16.22;100.00;102493.69;4983085;28;20112;-60
2023/06/01 09:39:17;;;;;;;12.30;6.15;;;;;;;16.33;99.99;102499.50;4980238;28;20018;-59
2023/06/01 09:41:52;;;;;;;15.35;5.18;;;;;;;16.35;97.75;102495.03;4980811;28;20018;-60
2023/06/01 09:44:30;;;;;;;9.40;5.57;;;;;;;16.52;97.49;102494.47;4978838;28;20046;-60
2023/06/01 09:47:02;;;;;;;13.53;5.40;;;;;;;16.40;97.87;102484.22;4966152;28;20547;-61
2023/06/01 09:49:30;;;;;;;10.32;5.43;;;;;;;16.76;95.44;102489.25;4980369;28;20105;-60
2023/06/01 09:52:04;;;;;;;19.23;5.82;;;;;;;16.57;96.93;102494.31;4984865;28;20125;-61
2023/06/01 09:54:32;;;;;;;10.15;5.90;;;;;;;16.76;95.18;102485.72;4983833;28;20493;-61
2023/06/01 09:56:59;;;;;;;8.80;5.18;;;;;;;16.42;95.88;102491.25;4983741;28;20076;-61
2023/06/01 09:59:26;;;;;;;15.52;6.45;;;;;;;16.53;97.69;102500.66;4986635;28;20041;-61
2023/06/01 10:01:52;;;;;;;14.43;5.88;;;;;;;16.60;96.94;102496.00;4985099;28;20240;-58
2023/06/01 10:04:22;;;;;;;10.52;5.90;;;;;;;16.56;97.89;102492.59;4984996;28;20023;-60
2023/06/01 10:06:51;;;;;;;12.05;5.45;;;;;;;16.82;97.82;102495.31;4987185;28;20381;-59
2023/06/01 10:09:19;;;;;;;11.48;5.65;;;;;;;16.99;95.07;102498.25;4986058;28;20050;-59
2023/06/01 10:11:45;;;;;;;13.47;5.73;;;;;;;17.05;93.62;102494.50;4984372;28;20496;-60
2023/06/01 10:14:10;;;;;;;12.27;5.90;;;;;;;16.85;95.01;102485.41;4987513;28;20141;-61
2023/06/01 10:16:36;;;;;;;9.15;6.18;;;;;;;16.94;95.47;102473.56;4983149;28;20109;-60
2023/06/01 10:19:01;;;;;;;12.50;6.07;;;;;;;16.74;97.00;102479.59;4985745;28;20453;-61
2023/06/01 10:21:28;;;;;;;47.42;7.95;;;;;;;16.75;95.20;102484.84;4987331;28;20500;-62
2023/06/01 10:23:54;;;;;;;17.27;5.57;;;;;;;17.14;96.73;102480.00;4984559;28;20375;-61
2023/06/01 10:26:20;;;;;;;27.80;5.90;;;;;;;17.11;94.40;102475.69;4986202;28;20023;-59
2023/06/01 10:28:47;;;;;;;13.65;6.05;;;;;;;17.23;93.41;102490.34;4984726;28;20045;-58
2023/06/01 10:31:31;;;;;;;10.45;5.65;;;;;;;17.22;92.56;102485.06;4981839;28;20064;-61
2023/06/01 10:33:57;;;;;;;15.20;5.25;;;;;;;17.37;93.17;102481.84;4986512;28;20041;-61
2023/06/01 10:36:23;;;;;;;16.13;5.80;;;;;;;17.32;93.04;102478.47;4985968;28;20029;-61
2023/06/01 10:38:48;;;;;;;15.63;5.30;;;;;;;17.38;93.50;102472.06;4983509;28;20026;-59
2023/06/01 10:41:30;;;;;;;12.73;5.65;;;;;;;17.55;92.81;102480.28;4986485;28;20026;-63
2023/06/01 10:43:56;;;;;;;11.80;5.05;;;;;;;17.55;94.40;102490.09;4984144;28;20034;-59
2023/06/01 10:46:35;;;;;;;12.10;5.57;;;;;;;17.65;93.22;102470.16;4982765;28;20057;-59
2023/06/01 10:49:02;;;;;;;11.73;5.35;;;;;;;18.08;90.52;102476.53;4986006;28;20100;-59
2023/06/01 10:51:28;;;;;;;13.32;5.50;;;;;;;18.13;88.25;102470.13;4983271;28;20057;-62
2023/06/01 10:53:54;;;;;;;18.27;6.05;;;;;;;18.30;86.96;102466.78;4986179;28;20034;-58
2023/06/01 10:56:23;;;;;;;11.73;5.32;;;;;;;18.05;88.84;102467.75;4985700;28;20030;-63
2023/06/01 10:59:07;;;;;;;10.18;4.95;;;;;;;18.24;88.30;102459.00;4982683;28;20113;-60
2023/06/01 11:01:40;;;;;;;10.25;5.68;;;;;;;17.93;89.73;102469.09;4986316;28;20324;-60
2023/06/01 11:04:05;;;;;;;11.77;5.50;;;;;;;17.92;90.62;102464.69;4985417;28;20487;-60
2023/06/01 11:06:39;;;;;;;9.75;5.65;;;;;;;17.79;89.67;102472.28;4983691;28;20026;-60
2023/06/01 11:09:10;;;;;;;12.25;5.57;;;;;;;18.00;89.01;102460.84;4985509;28;20047;-61
2023/06/01 11:11:48;;;;;;;14.60;5.60;;;;;;;18.00;90.69;102458.19;4985989;28;20042;-61